Time;durP1;ratioP1;P1;durP2;ratioP2;P2;SDS_P1;SDS_P2;PMS_P1;PMS_P2;Temp;Humidity;BMP_temperature;BMP_pressure;BME280_temperature;BME280_humidity;BME280_pressure;Samples;Min_cycle;Max_cycle;Signal;HPM_P1;HPM_P2
2023/10/26 00:01:26;;;;;;;0.40;0.40;;;11.90;99.90;;;;;;5033583;28;20711;-63
2023/10/26 00:03:52;;;;;;;0.40;0.40;;;11.80;99.90;;;;;;5033886;28;20182;-63
2023/10/26 00:06:17;;;;;;;0.40;0.40;;;11.70;99.90;;;;;;5033356;28;20775;-63
2023/10/26 00:08:43;;;;;;;0.67;0.67;;;11.70;99.90;;;;;;5033281;28;20187;-63
2023/10/26 00:11:08;;;;;;;0.40;0.40;;;11.70;99.90;;;;;;5033359;28;20248;-63
2023/10/26 00:13:34;;;;;;;0.50;0.50;;;11.80;99.90;;;;;;5033348;28;20209;-63
2023/10/26 00:16:00;;;;;;;0.30;0.30;;;11.70;99.90;;;;;;5033166;28;20222;-63
2023/10/26 00:18:25;;;;;;;0.40;0.40;;;11.80;99.90;;;;;;5032876;28;20174;-62
2023/10/26 00:21:01;;;;;;;0.43;0.43;;;11.80;99.90;;;;;;5033515;28;20179;-62
2023/10/26 00:23:26;;;;;;;0.40;0.40;;;11.70;99.90;;;;;;5033487;28;20217;-63
2023/10/26 00:25:52;;;;;;;0.47;0.47;;;11.80;99.90;;;;;;5033099;28;20461;-63
2023/10/26 00:28:18;;;;;;;0.97;0.83;;;11.80;99.90;;;;;;5033173;28;20418;-63
2023/10/26 00:30:44;;;;;;;0.40;0.40;;;11.70;99.90;;;;;;5032937;28;20245;-63
2023/10/26 00:33:09;;;;;;;0.30;0.30;;;11.70;99.90;;;;;;5032962;28;20183;-63
2023/10/26 00:35:35;;;;;;;0.50;0.40;;;11.70;99.90;;;;;;5032882;28;20191;-63
2023/10/26 00:38:01;;;;;;;0.30;0.30;;;11.60;99.90;;;;;;5033227;28;20174;-63
2023/10/26 00:40:27;;;;;;;1.30;1.10;;;11.60;99.90;;;;;;5033100;28;20253;-63
2023/10/26 00:43:01;;;;;;;0.40;0.40;;;11.60;99.90;;;;;;5032820;28;20178;-63
2023/10/26 00:45:34;;;;;;;0.40;0.40;;;11.60;99.90;;;;;;5032506;28;20424;-63
2023/10/26 00:48:00;;;;;;;0.40;0.40;;;11.80;99.90;;;;;;5032535;28;20409;-63
2023/10/26 00:50:26;;;;;;;0.43;0.43;;;11.80;99.90;;;;;;5032551;28;20410;-63
2023/10/26 00:52:53;;;;;;;0.30;0.30;;;11.80;99.90;;;;;;5032529;28;20417;-64
2023/10/26 00:55:19;;;;;;;0.40;0.40;;;11.90;99.90;;;;;;5031496;28;21045;-62
2023/10/26 00:57:45;;;;;;;0.60;0.40;;;11.80;99.90;;;;;;5032224;28;20420;-63
2023/10/26 01:00:11;;;;;;;0.40;0.40;;;11.60;99.90;;;;;;5032330;28;20410;-63
2023/10/26 01:02:38;;;;;;;0.40;0.40;;;11.50;99.90;;;;;;5032443;28;20492;-62
2023/10/26 01:05:04;;;;;;;0.40;0.40;;;11.50;99.90;;;;;;5032390;28;20520;-62
2023/10/26 01:07:30;;;;;;;0.40;0.40;;;11.50;99.90;;;;;;5032057;28;20406;-63
2023/10/26 01:09:59;;;;;;;0.40;0.40;;;11.40;99.90;;;;;;5032301;28;20761;-62
2023/10/26 01:12:25;;;;;;;0.40;0.40;;;11.40;99.90;;;;;;5032126;28;20623;-63
2023/10/26 01:14:52;;;;;;;0.40;0.40;;;11.40;99.90;;;;;;5032029;28;20691;-62
2023/10/26 01:17:18;;;;;;;0.40;0.40;;;11.40;99.90;;;;;;5032060;28;20410;-65
2023/10/26 01:19:46;;;;;;;0.83;0.50;;;11.50;99.90;;;;;;5032034;28;20265;-63
2023/10/26 01:22:12;;;;;;;0.97;0.40;;;11.50;99.90;;;;;;5032113;28;20583;-62
2023/10/26 01:24:38;;;;;;;0.40;0.40;;;11.50;99.90;;;;;;5032424;28;20835;-62
2023/10/26 01:27:04;;;;;;;0.50;0.50;;;11.50;99.90;;;;;;5031748;28;20504;-62
2023/10/26 01:29:31;;;;;;;0.40;0.40;;;11.50;99.90;;;;;;5031785;28;20215;-63
2023/10/26 01:31:57;;;;;;;0.30;0.30;;;11.50;99.90;;;;;;5031966;28;20456;-63
2023/10/26 01:34:22;;;;;;;0.50;0.50;;;11.50;99.90;;;;;;5031838;28;20179;-63
2023/10/26 01:36:48;;;;;;;0.50;0.50;;;11.50;99.90;;;;;;5032254;28;20406;-62
2023/10/26 01:39:16;;;;;;;0.50;0.50;;;11.60;99.90;;;;;;5031686;28;20178;-63
2023/10/26 01:41:42;;;;;;;2.27;0.47;;;11.70;99.90;;;;;;5032493;28;20544;-62
2023/10/26 01:44:07;;;;;;;1.37;0.80;;;11.70;99.90;;;;;;5031666;28;20410;-62
2023/10/26 01:46:33;;;;;;;0.30;0.30;;;11.60;99.90;;;;;;5031484;28;20229;-63
2023/10/26 01:49:02;;;;;;;0.50;0.47;;;11.60;99.90;;;;;;5031570;28;20249;-63
2023/10/26 01:51:28;;;;;;;0.30;0.30;;;11.60;99.90;;;;;;5031539;28;20201;-63
2023/10/26 01:53:53;;;;;;;0.73;0.50;;;11.50;99.90;;;;;;5032139;28;20406;-63
2023/10/26 01:56:19;;;;;;;0.30;0.30;;;11.60;99.90;;;;;;5031220;28;20202;-63
2023/10/26 01:58:45;;;;;;;0.60;0.60;;;11.70;99.90;;;;;;5031415;28;20171;-62
2023/10/26 02:01:10;;;;;;;0.40;0.40;;;11.60;99.90;;;;;;5031587;28;20568;-62
2023/10/26 02:03:36;;;;;;;0.40;0.40;;;11.70;99.90;;;;;;5031503;28;20417;-63
2023/10/26 02:06:05;;;;;;;1.37;0.60;;;11.70;99.90;;;;;;5035608;28;20281;-63
2023/10/26 02:08:31;;;;;;;0.43;0.40;;;11.60;99.90;;;;;;5037844;28;20185;-62
2023/10/26 02:10:56;;;;;;;2.60;0.70;;;11.60;99.90;;;;;;5036524;28;20448;-62
2023/10/26 02:13:22;;;;;;;0.40;0.40;;;11.50;99.90;;;;;;5038079;28;20249;-62
2023/10/26 02:15:48;;;;;;;0.40;0.40;;;11.60;99.90;;;;;;5036526;28;20197;-63
2023/10/26 02:18:13;;;;;;;0.37;0.37;;;11.50;99.90;;;;;;5038102;28;20656;-62
2023/10/26 02:20:39;;;;;;;3.63;0.60;;;11.60;99.90;;;;;;5038021;28;20535;-62
2023/10/26 02:23:05;;;;;;;0.40;0.40;;;11.70;99.90;;;;;;5038006;28;20522;-62
2023/10/26 02:25:31;;;;;;;0.40;0.40;;;11.60;99.90;;;;;;5037870;28;20425;-62
2023/10/26 02:27:57;;;;;;;0.50;0.50;;;11.50;99.90;;;;;;5037606;28;20171;-62
2023/10/26 02:30:23;;;;;;;0.30;0.30;;;11.50;99.90;;;;;;5037750;28;20413;-62
2023/10/26 02:32:49;;;;;;;0.40;0.40;;;11.50;99.90;;;;;;5037770;28;20460;-62
2023/10/26 02:35:15;;;;;;;0.30;0.30;;;11.50;99.90;;;;;;5037903;28;20190;-62
2023/10/26 02:37:41;;;;;;;0.87;0.40;;;11.50;99.90;;;;;;5037597;28;20220;-62
2023/10/26 02:40:10;;;;;;;0.40;0.40;;;11.40;99.90;;;;;;5037712;28;20862;-63
2023/10/26 02:42:36;;;;;;;0.40;0.40;;;11.40;99.90;;;;;;5037624;28;20402;-62
2023/10/26 02:45:05;;;;;;;0.40;0.40;;;11.30;99.90;;;;;;5037562;28;20437;-63
2023/10/26 02:47:30;;;;;;;4.77;1.00;;;11.30;99.90;;;;;;5037481;28;20258;-62
2023/10/26 02:49:56;;;;;;;0.30;0.30;;;11.10;99.90;;;;;;5037700;28;20484;-63
2023/10/26 02:52:22;;;;;;;0.40;0.40;;;11.10;99.90;;;;;;5037568;28;20591;-63
2023/10/26 02:54:47;;;;;;;0.53;0.53;;;11.10;99.90;;;;;;5037896;28;20213;-62
2023/10/26 02:57:16;;;;;;;0.40;0.40;;;11.20;99.90;;;;;;5037604;28;20173;-62
2023/10/26 02:59:42;;;;;;;0.40;0.40;;;11.30;99.90;;;;;;5037980;28;20174;-62
2023/10/26 03:02:08;;;;;;;0.80;0.50;;;11.30;99.90;;;;;;5038004;28;20500;-62
2023/10/26 03:04:34;;;;;;;0.30;0.30;;;11.20;99.90;;;;;;5037624;28;20260;-62
2023/10/26 03:07:00;;;;;;;0.30;0.30;;;11.20;99.90;;;;;;5037458;28;20419;-63
2023/10/26 03:09:26;;;;;;;0.60;0.40;;;11.20;99.90;;;;;;5037265;28;20436;-63
2023/10/26 03:11:52;;;;;;;0.43;0.40;;;11.10;99.90;;;;;;5037286;28;20448;-63
2023/10/26 03:14:18;;;;;;;0.30;0.30;;;11.20;99.90;;;;;;5037403;28;20163;-63
2023/10/26 03:16:44;;;;;;;0.30;0.30;;;11.20;99.90;;;;;;5035377;28;20198;-63
2023/10/26 03:19:10;;;;;;;0.50;0.50;;;11.20;99.90;;;;;;5034182;28;20441;-63
2023/10/26 03:21:35;;;;;;;0.30;0.30;;;11.20;99.90;;;;;;5034315;28;20206;-62
2023/10/26 03:24:01;;;;;;;0.30;0.30;;;11.20;99.90;;;;;;5034236;28;20209;-62
2023/10/26 03:26:26;;;;;;;0.30;0.30;;;11.20;99.90;;;;;;5033922;28;20739;-62
2023/10/26 03:28:52;;;;;;;0.30;0.30;;;11.10;99.90;;;;;;5034033;28;20167;-63
2023/10/26 03:31:19;;;;;;;1.90;1.80;;;11.10;99.90;;;;;;5034237;28;20218;-62
2023/10/26 03:33:44;;;;;;;0.30;0.30;;;11.10;99.90;;;;;;5034078;28;20170;-63
2023/10/26 03:36:18;;;;;;;0.50;0.50;;;11.00;99.90;;;;;;5033909;28;20425;-63
2023/10/26 03:38:44;;;;;;;0.30;0.30;;;11.10;99.90;;;;;;5033718;28;20660;-63
2023/10/26 03:41:10;;;;;;;0.30;0.30;;;11.10;99.90;;;;;;5033899;28;20505;-63
2023/10/26 03:43:36;;;;;;;0.30;0.30;;;11.10;99.90;;;;;;5034114;28;20467;-62
2023/10/26 03:46:01;;;;;;;0.30;0.30;;;11.10;99.90;;;;;;5033733;28;20194;-63
2023/10/26 03:48:27;;;;;;;0.30;0.30;;;11.10;99.90;;;;;;5033551;28;20577;-63
2023/10/26 03:50:53;;;;;;;0.30;0.30;;;11.20;99.90;;;;;;5033752;28;20202;-63
2023/10/26 03:53:18;;;;;;;0.30;0.30;;;11.20;99.90;;;;;;5033608;28;20163;-63
2023/10/26 03:55:44;;;;;;;0.30;0.30;;;11.20;99.90;;;;;;5033428;28;20218;-63
2023/10/26 03:58:12;;;;;;;0.37;0.37;;;11.20;99.90;;;;;;5033638;28;20177;-63
2023/10/26 04:00:37;;;;;;;0.30;0.30;;;11.20;99.90;;;;;;5033697;28;20253;-63
2023/10/26 04:03:03;;;;;;;0.30;0.30;;;11.30;99.90;;;;;;5033579;28;20489;-63
2023/10/26 04:05:29;;;;;;;0.30;0.30;;;11.30;99.90;;;;;;5033416;28;20198;-63
2023/10/26 04:07:56;;;;;;;0.30;0.30;;;11.30;99.90;;;;;;5033178;28;20171;-64
2023/10/26 04:10:22;;;;;;;0.30;0.30;;;11.40;99.90;;;;;;5033401;28;20175;-62
2023/10/26 04:12:48;;;;;;;0.30;0.30;;;11.40;99.90;;;;;;5033263;28;21025;-63
2023/10/26 04:15:13;;;;;;;0.30;0.30;;;11.50;99.90;;;;;;5033207;28;20684;-63
2023/10/26 04:17:39;;;;;;;0.30;0.30;;;11.50;99.90;;;;;;5032986;28;20177;-63
2023/10/26 04:20:07;;;;;;;0.30;0.30;;;11.50;99.90;;;;;;5033614;28;20171;-63
2023/10/26 04:22:33;;;;;;;0.30;0.30;;;11.40;99.90;;;;;;5033388;28;20190;-64
2023/10/26 04:24:59;;;;;;;0.30;0.30;;;11.50;99.90;;;;;;5033025;28;20441;-63
2023/10/26 04:27:25;;;;;;;0.40;0.40;;;11.50;99.90;;;;;;5032831;28;20177;-64
2023/10/26 04:29:50;;;;;;;0.30;0.30;;;11.50;99.90;;;;;;5032883;28;20792;-63
2023/10/26 04:32:16;;;;;;;0.57;0.53;;;11.50;99.90;;;;;;5033319;28;20625;-63
2023/10/26 04:34:44;;;;;;;0.30;0.30;;;11.50;99.90;;;;;;5032809;28;20191;-63
2023/10/26 04:37:10;;;;;;;1.70;0.60;;;11.60;99.90;;;;;;5032614;28;20191;-63
2023/10/26 04:39:36;;;;;;;0.60;0.40;;;11.60;99.90;;;;;;5032601;28;20443;-63
2023/10/26 04:42:03;;;;;;;0.30;0.30;;;11.70;99.90;;;;;;5033001;28;20460;-63
2023/10/26 04:44:30;;;;;;;0.50;0.50;;;11.70;99.90;;;;;;5032664;28;20674;-63
2023/10/26 04:46:55;;;;;;;0.30;0.30;;;11.70;99.90;;;;;;5032571;28;20413;-64
2023/10/26 04:49:21;;;;;;;0.30;0.30;;;11.80;99.90;;;;;;5032485;28;20781;-63
2023/10/26 04:51:47;;;;;;;0.30;0.30;;;11.80;99.90;;;;;;5032374;28;20457;-63
2023/10/26 04:54:12;;;;;;;0.40;0.40;;;11.80;99.90;;;;;;5064425;28;20190;-63
2023/10/26 04:56:38;;;;;;;0.30;0.30;;;11.80;99.90;;;;;;5032339;28;20611;-63
2023/10/26 04:59:04;;;;;;;0.43;0.43;;;11.80;99.90;;;;;;5032367;28;20627;-63
2023/10/26 05:01:29;;;;;;;0.30;0.30;;;11.80;99.90;;;;;;5032382;28;20178;-63
2023/10/26 05:03:55;;;;;;;0.40;0.40;;;11.70;99.90;;;;;;5032432;28;20174;-63
2023/10/26 05:06:21;;;;;;;0.60;0.60;;;11.70;99.90;;;;;;5032011;28;20217;-63
2023/10/26 05:08:47;;;;;;;0.37;0.37;;;11.70;99.90;;;;;;5032143;28;20708;-63
2023/10/26 05:11:13;;;;;;;0.40;0.40;;;11.70;99.90;;;;;;5032581;28;20453;-63
2023/10/26 05:13:38;;;;;;;0.40;0.40;;;11.70;99.90;;;;;;5032297;28;20201;-63
2023/10/26 05:16:04;;;;;;;0.40;0.40;;;11.70;99.90;;;;;;5032063;28;20429;-63
2023/10/26 05:18:30;;;;;;;3.33;0.67;;;11.70;99.90;;;;;;5031802;28;20611;-63
2023/10/26 05:20:56;;;;;;;0.50;0.50;;;11.70;99.90;;;;;;5031905;28;20425;-64
2023/10/26 05:23:21;;;;;;;0.93;0.80;;;11.70;99.90;;;;;;5032282;28;20230;-63
2023/10/26 05:25:48;;;;;;;0.60;0.60;;;11.70;99.90;;;;;;5031911;28;20199;-63
2023/10/26 05:28:14;;;;;;;0.50;0.50;;;11.60;99.90;;;;;;5031682;28;20175;-63
2023/10/26 05:30:40;;;;;;;0.50;0.50;;;11.70;99.90;;;;;;5031837;28;20906;-64
2023/10/26 05:33:06;;;;;;;0.30;0.30;;;11.80;99.90;;;;;;5031891;28;20896;-63
2023/10/26 05:35:32;;;;;;;0.40;0.40;;;11.80;99.90;;;;;;5031669;28;20425;-64
2023/10/26 05:37:57;;;;;;;2.60;1.00;;;11.80;99.90;;;;;;5031567;28;20182;-63
2023/10/26 05:40:23;;;;;;;0.40;0.40;;;11.80;99.90;;;;;;5031819;28;20177;-63
2023/10/26 05:42:49;;;;;;;0.63;0.63;;;11.80;99.90;;;;;;5032208;28;20186;-63
2023/10/26 05:45:15;;;;;;;0.50;0.50;;;11.80;99.90;;;;;;5031678;28;20289;-63
2023/10/26 05:47:40;;;;;;;0.40;0.40;;;11.80;99.90;;;;;;5031416;28;20931;-63
2023/10/26 05:50:07;;;;;;;3.03;1.40;;;11.90;99.90;;;;;;5031540;28;20229;-64
2023/10/26 05:52:32;;;;;;;0.43;0.43;;;11.90;99.90;;;;;;5031538;28;20206;-63
2023/10/26 05:54:58;;;;;;;0.70;0.70;;;11.90;99.90;;;;;;5031422;28;21017;-63
2023/10/26 05:57:25;;;;;;;0.40;0.40;;;12.00;99.90;;;;;;5031382;28;20695;-63
2023/10/26 05:59:51;;;;;;;0.60;0.40;;;11.90;99.90;;;;;;5031496;28;20716;-63
2023/10/26 06:02:17;;;;;;;0.87;0.87;;;12.00;99.90;;;;;;5031530;28;20447;-63
2023/10/26 06:04:43;;;;;;;0.40;0.40;;;11.90;99.90;;;;;;5031302;28;20438;-63
2023/10/26 06:07:08;;;;;;;0.50;0.50;;;11.90;99.90;;;;;;5031501;28;20185;-63
2023/10/26 06:09:34;;;;;;;0.53;0.53;;;11.90;99.90;;;;;;5030858;28;20475;-62
2023/10/26 06:12:00;;;;;;;0.80;0.50;;;11.90;99.90;;;;;;5031039;28;20238;-63
2023/10/26 06:14:25;;;;;;;0.60;0.60;;;11.90;99.90;;;;;;5031012;28;20171;-63
2023/10/26 06:16:51;;;;;;;0.87;0.70;;;11.90;99.90;;;;;;5030999;28;20262;-63
2023/10/26 06:19:17;;;;;;;0.90;0.90;;;11.90;99.90;;;;;;5031016;28;20175;-64
2023/10/26 06:21:42;;;;;;;0.73;0.60;;;11.90;99.90;;;;;;5031393;28;20182;-63
2023/10/26 06:24:08;;;;;;;0.60;0.60;;;11.90;99.90;;;;;;5031141;28;20178;-63
2023/10/26 06:26:34;;;;;;;0.43;0.43;;;11.80;99.90;;;;;;5031312;28;20205;-63
2023/10/26 06:28:59;;;;;;;1.30;1.20;;;11.90;99.90;;;;;;5031201;28;20183;-63
2023/10/26 06:31:25;;;;;;;0.53;0.53;;;11.90;99.90;;;;;;5031282;28;20202;-63
2023/10/26 06:33:51;;;;;;;0.60;0.43;;;11.90;99.90;;;;;;5031194;28;20179;-64
2023/10/26 06:36:17;;;;;;;0.30;0.30;;;11.90;99.90;;;;;;5031285;28;20703;-64
2023/10/26 06:38:43;;;;;;;0.93;0.80;;;11.80;99.90;;;;;;5031111;28;20412;-63
2023/10/26 06:41:09;;;;;;;1.50;0.80;;;11.80;99.90;;;;;;5031223;28;20986;-63
2023/10/26 06:43:38;;;;;;;0.70;0.60;;;11.90;99.90;;;;;;5031244;28;20186;-63
2023/10/26 06:46:04;;;;;;;0.50;0.40;;;11.90;99.90;;;;;;5030798;28;20517;-63
2023/10/26 06:48:30;;;;;;;0.90;0.90;;;11.90;99.90;;;;;;5030517;28;20837;-63
2023/10/26 06:51:04;;;;;;;0.43;0.43;;;11.90;99.90;;;;;;5031237;28;20417;-63
2023/10/26 06:53:29;;;;;;;0.77;0.77;;;12.00;99.90;;;;;;5033213;28;20164;-61
2023/10/26 06:55:56;;;;;;;0.40;0.40;;;11.90;99.90;;;;;;5034579;28;20974;-63
2023/10/26 06:58:22;;;;;;;0.40;0.40;;;11.90;99.90;;;;;;5034295;28;20186;-61
2023/10/26 07:00:47;;;;;;;0.30;0.30;;;11.90;99.90;;;;;;5034896;28;20449;-63
2023/10/26 07:03:13;;;;;;;0.40;0.40;;;12.00;99.90;;;;;;5034616;28;20557;-62
2023/10/26 07:05:40;;;;;;;0.30;0.30;;;12.10;99.90;;;;;;5034554;28;20675;-64
2023/10/26 07:08:06;;;;;;;0.40;0.40;;;12.20;99.90;;;;;;5034257;28;20167;-62
2023/10/26 07:10:31;;;;;;;0.50;0.50;;;12.20;99.90;;;;;;5034621;28;20410;-63
2023/10/26 07:12:57;;;;;;;0.30;0.30;;;12.10;99.90;;;;;;5034481;28;20692;-62
2023/10/26 07:15:23;;;;;;;0.30;0.30;;;12.20;99.90;;;;;;5034080;28;20202;-62
2023/10/26 07:17:48;;;;;;;0.30;0.30;;;12.20;99.90;;;;;;5033557;28;20171;-62
2023/10/26 07:20:14;;;;;;;0.30;0.30;;;12.20;99.90;;;;;;5034425;28;20373;-63
2023/10/26 07:22:42;;;;;;;0.90;0.90;;;12.20;99.90;;;;;;5034117;28;20561;-62
2023/10/26 07:25:08;;;;;;;0.40;0.40;;;12.30;99.90;;;;;;5034278;28;20821;-62
2023/10/26 07:27:34;;;;;;;1.27;0.40;;;12.20;99.90;;;;;;5034036;28;20417;-61
2023/10/26 07:30:00;;;;;;;0.40;0.40;;;12.30;99.90;;;;;;5034216;28;20503;-63
2023/10/26 07:32:25;;;;;;;0.40;0.40;;;12.40;99.90;;;;;;5033922;28;20194;-63
2023/10/26 07:34:52;;;;;;;0.97;0.47;;;12.40;99.90;;;;;;5033993;28;20425;-62
2023/10/26 07:37:18;;;;;;;0.50;0.50;;;12.30;99.90;;;;;;5033689;28;20251;-62
2023/10/26 07:39:44;;;;;;;0.30;0.30;;;12.40;99.90;;;;;;5033609;28;20449;-63
2023/10/26 07:42:10;;;;;;;0.40;0.40;;;12.50;99.90;;;;;;5034023;28;20424;-62
2023/10/26 07:44:37;;;;;;;0.30;0.30;;;12.50;99.90;;;;;;5033847;28;20437;-62
2023/10/26 07:47:03;;;;;;;0.43;0.43;;;12.60;99.90;;;;;;5033756;28;20207;-63
2023/10/26 07:49:30;;;;;;;0.47;0.47;;;12.60;99.90;;;;;;5033180;28;20444;-63
2023/10/26 07:51:55;;;;;;;7.97;0.97;;;12.70;99.90;;;;;;5033202;28;20484;-62
2023/10/26 07:54:21;;;;;;;0.50;0.50;;;12.80;99.90;;;;;;5033562;28;20405;-62
2023/10/26 07:56:46;;;;;;;0.50;0.50;;;12.80;99.90;;;;;;5033509;28;20179;-62
2023/10/26 07:59:12;;;;;;;0.50;0.50;;;12.90;99.90;;;;;;5033458;28;20546;-62
2023/10/26 08:01:38;;;;;;;0.50;0.50;;;13.00;99.90;;;;;;5033663;28;20178;-63
2023/10/26 08:04:04;;;;;;;0.37;0.37;;;13.10;99.90;;;;;;5033097;28;20211;-63
2023/10/26 08:06:29;;;;;;;0.30;0.30;;;13.10;99.90;;;;;;5033025;28;20260;-69
2023/10/26 08:08:56;;;;;;;0.53;0.53;;;13.10;99.90;;;;;;5033063;28;20422;-67
2023/10/26 08:11:23;;;;;;;0.37;0.37;;;13.30;99.90;;;;;;5032387;28;20264;-68
2023/10/26 08:13:49;;;;;;;0.40;0.40;;;13.60;99.90;;;;;;5033243;28;20413;-66
2023/10/26 08:16:15;;;;;;;2.63;0.60;;;13.80;99.90;;;;;;5032591;28;20448;-67
2023/10/26 08:18:42;;;;;;;1.10;1.00;;;14.00;99.90;;;;;;5032734;28;20410;-66
2023/10/26 08:21:08;;;;;;;0.93;0.93;;;14.20;99.90;;;;;;5033460;28;20852;-67
2023/10/26 08:23:33;;;;;;;0.40;0.40;;;14.30;99.90;;;;;;5033417;28;20437;-66
2023/10/26 08:26:07;;;;;;;0.50;0.50;;;14.50;99.90;;;;;;5033244;28;20511;-67
2023/10/26 08:28:33;;;;;;;0.63;0.63;;;14.60;99.90;;;;;;5033023;28;20171;-67
2023/10/26 08:31:00;;;;;;;0.40;0.40;;;14.70;99.90;;;;;;5033148;28;20485;-67
2023/10/26 08:33:29;;;;;;;2.00;0.50;;;14.70;99.90;;;;;;5033239;28;20498;-67
2023/10/26 08:35:55;;;;;;;0.40;0.40;;;14.70;99.90;;;;;;5033179;28;20439;-66
2023/10/26 08:38:22;;;;;;;1.13;0.60;;;14.70;99.90;;;;;;5032916;28;20410;-66
2023/10/26 08:40:52;;;;;;;1.03;0.53;;;14.80;99.90;;;;;;5033129;28;20415;-66
2023/10/26 08:43:19;;;;;;;0.30;0.30;;;14.80;99.90;;;;;;5033016;28;20412;-66
2023/10/26 08:45:48;;;;;;;0.40;0.40;;;14.90;99.90;;;;;;5033007;28;20814;-68
2023/10/26 08:48:18;;;;;;;1.80;1.20;;;15.00;99.90;;;;;;5032690;28;20507;-68
2023/10/26 08:50:45;;;;;;;0.40;0.40;;;15.10;99.90;;;;;;5032842;28;20582;-62
2023/10/26 08:53:12;;;;;;;0.40;0.40;;;15.20;99.90;;;;;;5032505;28;20867;-62
2023/10/26 08:55:42;;;;;;;3.57;0.60;;;15.20;99.90;;;;;;5032197;28;20536;-62
2023/10/26 08:58:08;;;;;;;0.40;0.40;;;15.10;99.90;;;;;;5032240;28;20435;-62
2023/10/26 09:00:37;;;;;;;0.30;0.30;;;14.80;99.90;;;;;;5032592;28;20409;-62
2023/10/26 09:03:03;;;;;;;1.33;0.50;;;14.70;99.90;;;;;;5032402;28;20471;-62
2023/10/26 09:05:29;;;;;;;0.67;0.67;;;14.50;99.90;;;;;;5032026;28;20508;-62
2023/10/26 09:07:54;;;;;;;0.50;0.50;;;14.40;99.90;;;;;;5032001;28;21218;-62
2023/10/26 09:10:30;;;;;;;0.63;0.50;;;14.40;99.90;;;;;;5032201;28;20193;-62
2023/10/26 09:13:00;;;;;;;0.97;0.90;;;14.20;99.90;;;;;;5032191;28;20202;-62
2023/10/26 09:15:26;;;;;;;0.30;0.30;;;14.10;99.90;;;;;;5031326;28;20432;-62
2023/10/26 09:17:55;;;;;;;1.00;1.00;;;14.00;99.90;;;;;;5031217;28;20409;-62
2023/10/26 09:20:22;;;;;;;1.13;1.03;;;14.00;99.90;;;;;;5029250;28;20531;-63
2023/10/26 09:22:47;;;;;;;4.20;0.60;;;13.90;99.90;;;;;;5030832;28;20421;-64
2023/10/26 09:25:14;;;;;;;0.40;0.40;;;13.80;99.90;;;;;;5030819;28;20433;-63
2023/10/26 09:27:43;;;;;;;0.43;0.43;;;13.80;99.90;;;;;;5030389;28;20561;-63
2023/10/26 09:30:29;;;;;;;6.03;1.23;;;13.90;99.90;;;;;;5030637;28;20813;-63
2023/10/26 09:32:58;;;;;;;6.23;2.63;;;13.80;99.90;;;;;;5030405;28;20496;-63
2023/10/26 09:35:28;;;;;;;0.80;0.70;;;13.80;99.90;;;;;;5030130;28;20441;-62
2023/10/26 09:37:54;;;;;;;1.17;1.17;;;13.60;99.90;;;;;;5031554;28;20423;-64
2023/10/26 09:40:23;;;;;;;0.60;0.60;;;13.40;99.90;;;;;;5032646;28;20497;-63
2023/10/26 09:42:50;;;;;;;1.17;1.07;;;13.40;99.90;;;;;;5031842;28;20789;-63
2023/10/26 09:45:18;;;;;;;1.27;1.17;;;13.30;99.90;;;;;;5031637;28;20465;-64
2023/10/26 09:47:47;;;;;;;0.60;0.53;;;13.40;99.90;;;;;;5031280;28;20437;-63
2023/10/26 09:50:14;;;;;;;1.13;1.03;;;13.30;99.90;;;;;;5031710;28;20424;-63
2023/10/26 09:52:42;;;;;;;1.90;0.70;;;13.40;99.90;;;;;;5031597;28;20548;-63
2023/10/26 09:55:10;;;;;;;2.70;0.50;;;13.40;99.90;;;;;;5030315;28;20481;-63
2023/10/26 09:57:43;;;;;;;0.97;0.93;;;13.40;99.90;;;;;;5031428;28;20418;-63
2023/10/26 10:00:13;;;;;;;6.70;1.23;;;13.30;99.90;;;;;;5031462;28;20402;-63
2023/10/26 10:02:39;;;;;;;0.60;0.60;;;13.30;99.90;;;;;;5031832;28;20426;-63
2023/10/26 10:05:05;;;;;;;1.17;0.87;;;13.40;99.90;;;;;;5031455;28;20437;-63
2023/10/26 10:07:43;;;;;;;4.00;0.73;;;13.50;99.90;;;;;;5030991;28;20421;-63
2023/10/26 10:10:11;;;;;;;0.90;0.50;;;13.60;99.90;;;;;;5031459;28;20413;-63
2023/10/26 10:12:38;;;;;;;1.33;0.80;;;13.60;99.90;;;;;;5031374;28;20798;-63
2023/10/26 10:15:09;;;;;;;9.63;0.80;;;13.60;99.90;;;;;;5031289;28;20525;-63
2023/10/26 10:17:58;;;;;;;3.40;0.80;;;13.80;99.90;;;;;;5031105;28;20922;-63
2023/10/26 10:20:23;;;;;;;2.10;1.13;;;13.90;99.90;;;;;;5018924;28;20417;-63
2023/10/26 10:22:52;;;;;;;1.13;0.70;;;13.80;99.90;;;;;;5031390;28;20428;-63
2023/10/26 10:25:18;;;;;;;0.50;0.50;;;13.80;99.90;;;;;;5031226;28;20203;-63
2023/10/26 10:28:04;;;;;;;3.47;2.03;;;13.80;99.90;;;;;;5034523;28;20498;-64
2023/10/26 10:30:45;;;;;;;0.90;0.90;;;13.70;99.90;;;;;;5021290;28;20480;-62
2023/10/26 10:33:33;;;;;;;3.70;0.90;;;13.80;99.90;;;;;;5035347;28;20448;-63
2023/10/26 10:36:03;;;;;;;2.33;0.83;;;13.80;99.90;;;;;;5034169;28;20516;-63
2023/10/26 10:38:29;;;;;;;0.77;0.77;;;13.80;99.90;;;;;;5034627;28;20933;-63
2023/10/26 10:40:55;;;;;;;6.07;0.93;;;13.70;99.90;;;;;;5033818;28;20416;-63
2023/10/26 10:43:44;;;;;;;1.20;0.50;;;13.80;99.90;;;;;;5034246;28;20405;-63
2023/10/26 10:46:20;;;;;;;0.47;0.47;;;13.90;99.90;;;;;;5033639;28;20196;-63
2023/10/26 10:49:00;;;;;;;2.67;1.27;;;14.20;99.90;;;;;;5034928;28;20472;-63
2023/10/26 10:51:39;;;;;;;3.33;1.07;;;14.30;99.90;;;;;;5034916;28;20523;-63
2023/10/26 10:54:11;;;;;;;1.17;0.90;;;14.50;99.90;;;;;;5034976;28;20830;-63
2023/10/26 10:56:37;;;;;;;1.63;1.00;;;14.80;99.90;;;;;;5034573;28;20606;-64
2023/10/26 10:59:18;;;;;;;1.57;1.50;;;14.80;99.90;;;;;;5035477;28;20429;-63
2023/10/26 11:01:44;;;;;;;2.67;0.80;;;14.90;99.90;;;;;;5034965;28;20437;-63
2023/10/26 11:04:13;;;;;;;0.50;0.50;;;14.90;99.90;;;;;;5034726;28;20415;-63
2023/10/26 11:06:44;;;;;;;0.97;0.73;;;14.70;99.90;;;;;;5034491;28;20448;-64
2023/10/26 11:09:23;;;;;;;1.00;1.00;;;14.80;99.90;;;;;;5034466;28;20421;-63
2023/10/26 11:11:49;;;;;;;0.50;0.50;;;14.90;99.90;;;;;;5034511;28;20452;-63
2023/10/26 11:14:16;;;;;;;4.40;0.77;;;14.80;99.90;;;;;;5034562;28;20745;-63
2023/10/26 11:16:42;;;;;;;0.80;0.50;;;14.80;99.90;;;;;;5034327;28;20652;-63
2023/10/26 11:19:08;;;;;;;1.40;1.30;;;14.70;99.90;;;;;;5034193;28;20552;-63
2023/10/26 11:21:34;;;;;;;1.47;1.23;;;14.80;99.90;;;;;;5034385;28;20261;-63
2023/10/26 11:24:03;;;;;;;2.97;0.90;;;14.90;99.90;;;;;;5034402;28;20188;-63
2023/10/26 11:26:28;;;;;;;0.83;0.83;;;15.10;99.90;;;;;;5034143;28;20254;-63
2023/10/26 11:28:54;;;;;;;0.37;0.37;;;15.30;99.90;;;;;;5034112;28;20421;-63
2023/10/26 11:31:35;;;;;;;0.93;0.93;;;15.60;99.90;;;;;;5034161;28;20195;-64
2023/10/26 11:34:05;;;;;;;3.53;1.10;;;15.70;99.90;;;;;;5034121;28;20186;-63
2023/10/26 11:36:31;;;;;;;2.23;0.60;;;15.60;99.90;;;;;;5034172;28;20434;-63
2023/10/26 11:38:57;;;;;;;0.53;0.53;;;15.60;99.90;;;;;;5031690;28;20527;-63
2023/10/26 11:41:29;;;;;;;1.27;0.67;;;15.30;99.90;;;;;;5034150;28;20176;-64
2023/10/26 11:43:56;;;;;;;6.17;0.60;;;15.30;99.90;;;;;;5034037;28;20778;-63
2023/10/26 11:46:35;;;;;;;1.27;1.17;;;15.30;99.90;;;;;;5033705;28;20847;-63
2023/10/26 11:49:05;;;;;;;2.97;1.03;;;15.50;99.90;;;;;;5033717;28;20815;-63
2023/10/26 11:51:31;;;;;;;4.03;0.80;;;15.50;99.90;;;;;;5033868;28;20740;-63
2023/10/26 11:54:11;;;;;;;3.27;1.10;;;15.70;99.90;;;;;;5033794;28;20503;-63
2023/10/26 11:56:36;;;;;;;0.83;0.60;;;15.90;99.90;;;;;;5032421;28;20425;-63
2023/10/26 11:59:02;;;;;;;1.43;0.70;;;16.10;99.90;;;;;;5030306;28;20476;-63
2023/10/26 12:01:28;;;;;;;1.43;0.60;;;16.40;99.90;;;;;;5034063;28;20690;-63
2023/10/26 12:03:54;;;;;;;2.00;0.70;;;16.40;99.80;;;;;;5033879;28;20178;-63
2023/10/26 12:06:19;;;;;;;5.90;1.13;;;16.50;99.90;;;;;;5033458;28;20222;-63
2023/10/26 12:08:45;;;;;;;6.33;2.80;;;16.40;99.80;;;;;;5032809;28;20990;-64
2023/10/26 12:11:11;;;;;;;1.30;0.73;;;16.50;99.90;;;;;;5033479;28;20210;-63
2023/10/26 12:13:38;;;;;;;2.90;1.03;;;16.70;99.90;;;;;;5033348;28;20210;-63
2023/10/26 12:16:05;;;;;;;1.63;0.83;;;16.90;99.90;;;;;;5032136;28;20222;-63
2023/10/26 12:18:32;;;;;;;1.43;0.70;;;17.00;99.50;;;;;;5032604;28;20417;-63
2023/10/26 12:20:59;;;;;;;4.43;1.03;;;17.10;99.30;;;;;;5029862;28;20417;-63
2023/10/26 12:23:24;;;;;;;1.47;1.03;;;17.10;99.20;;;;;;5033129;28;20453;-63
2023/10/26 12:25:50;;;;;;;0.80;0.70;;;17.10;99.20;;;;;;5032983;28;20516;-63
2023/10/26 12:28:16;;;;;;;1.67;0.70;;;17.00;99.00;;;;;;5033375;28;20221;-63
2023/10/26 12:30:41;;;;;;;1.23;0.93;;;17.00;99.00;;;;;;5032146;28;20179;-64
2023/10/26 12:33:07;;;;;;;1.40;0.80;;;16.90;99.10;;;;;;5032991;28;20234;-63
2023/10/26 12:35:33;;;;;;;0.50;0.50;;;16.90;99.60;;;;;;5031821;28;20742;-63
2023/10/26 12:37:59;;;;;;;0.40;0.40;;;16.90;99.40;;;;;;5032619;28;20171;-63
2023/10/26 12:40:24;;;;;;;0.50;0.50;;;16.70;99.80;;;;;;5032490;28;20446;-64
2023/10/26 12:42:50;;;;;;;0.80;0.70;;;16.70;99.70;;;;;;5032755;28;20618;-63
2023/10/26 12:45:17;;;;;;;1.73;0.53;;;16.60;99.80;;;;;;5032704;28;20230;-63
2023/10/26 12:47:42;;;;;;;1.03;1.03;;;16.70;99.90;;;;;;5032491;28;20187;-63